Time;durP1;ratioP1;P1;durP2;ratioP2;P2;SDS_P1;SDS_P2;PMS_P1;PMS_P2;Temp;Humidity;BMP_temperature;BMP_pressure;BME280_temperature;BME280_humidity;BME280_pressure;Samples;Min_cycle;Max_cycle;Signal;HPM_P1;HPM_P2
2023/06/04 00:01:56;;;;;;;;;;;;;;;16.70;nan;102282.38;5047466;28;20619;-81
2023/06/04 00:04:23;;;;;;;;;;;;;;;16.69;nan;102279.88;5046761;28;19923;-81
2023/06/04 00:06:49;;;;;;;;;;;;;;;16.68;nan;102289.88;5038422;28;19924;-80
2023/06/04 00:09:14;;;;;;;;;;;;;;;16.62;nan;102283.56;5046192;28;20331;-81
2023/06/04 00:11:40;;;;;;;;;;;;;;;16.55;nan;102279.41;5041718;28;20296;-80
2023/06/04 00:14:05;;;;;;;;;;;;;;;16.50;nan;102277.44;5045100;28;19928;-80
2023/06/04 00:16:30;;;;;;;;;;;;;;;16.46;nan;102272.78;5046349;28;20023;-80
2023/06/04 00:18:56;;;;;;;;;;;;;;;16.43;nan;102274.13;5044547;28;20007;-81
2023/06/04 00:21:21;;;;;;;;;;;;;;;16.40;nan;102266.50;5041884;28;19917;-81
2023/06/04 00:23:46;;;;;;;;;;;;;;;16.36;nan;102259.97;5042725;28;20392;-81
2023/06/04 00:26:12;;;;;;;;;;;;;;;16.33;nan;102260.44;5041695;28;19917;-80
2023/06/04 00:28:37;;;;;;;;;;;;;;;16.27;nan;102267.69;5041015;28;19975;-81
2023/06/04 00:31:04;;;;;;;;;;;;;;;16.22;nan;102258.69;5047335;28;19920;-80
2023/06/04 00:33:30;;;;;;;;;;;;;;;16.17;nan;102267.53;5045589;28;19933;-80
2023/06/04 00:35:55;;;;;;;;;;;;;;;16.13;nan;102257.44;5046928;28;20452;-81
2023/06/04 00:38:20;;;;;;;;;;;;;;;16.07;nan;102263.88;5045658;28;19931;-80
2023/06/04 00:40:46;;;;;;;;;;;;;;;15.98;nan;102258.88;5045979;28;19995;-81
2023/06/04 00:43:13;;;;;;;;;;;;;;;15.91;nan;102258.22;5045460;28;20297;-81
2023/06/04 00:45:39;;;;;;;;;;;;;;;15.83;nan;102258.66;5046336;28;19946;-81
2023/06/04 00:48:05;;;;;;;;;;;;;;;15.78;nan;102255.84;5043327;28;19921;-81
2023/06/04 00:50:33;;;;;;;;;;;;;;;15.76;nan;102257.16;5046677;28;19924;-80
2023/06/04 00:52:58;;;;;;;;;;;;;;;15.76;nan;102259.84;5041791;28;19971;-81
2023/06/04 00:55:23;;;;;;;;;;;;;;;15.73;nan;102261.16;5044380;28;19925;-81
2023/06/04 00:57:49;;;;;;;;;;;;;;;15.69;nan;102260.84;5043983;28;19928;-82
2023/06/04 01:00:14;;;;;;;;;;;;;;;15.65;nan;102253.50;5043035;28;19921;-80
2023/06/04 01:02:41;;;;;;;;;;;;;;;15.60;nan;102256.91;5044820;28;20300;-81
2023/06/04 01:05:25;;;;;;;;;;;;;;;15.58;nan;102258.19;5043360;28;19939;-80
2023/06/04 01:07:52;;;;;;;;;;;;;;;15.54;nan;102262.44;5040053;28;19927;-81
2023/06/04 01:10:17;;;;;;;;;;;;;;;15.52;nan;102256.47;5040625;28;20308;-80
2023/06/04 01:12:43;;;;;;;;;;;;;;;15.50;nan;102258.59;5038998;28;19917;-81
2023/06/04 01:15:08;;;;;;;;;;;;;;;15.44;nan;102257.69;5041340;28;19929;-81
2023/06/04 01:17:38;;;;;;;;;;;;;;;15.37;nan;102248.91;5043717;28;20439;-80
2023/06/04 01:20:19;;;;;;;;;;;;;;;15.35;nan;102253.75;5042219;28;19943;-80
2023/06/04 01:22:44;;;;;;;;;;;;;;;15.27;nan;102254.97;5046040;28;19927;-80
2023/06/04 01:25:19;;;;;;;;;;;;;;;15.19;nan;102251.84;5041577;28;19916;-80
2023/06/04 01:27:46;;;;;;;;;;;;;;;15.07;nan;102247.28;5046910;28;20368;-80
2023/06/04 01:30:12;;;;;;;;;;;;;;;15.03;nan;102256.94;5046932;28;20761;-80
2023/06/04 01:32:38;;;;;;;;;;;;;;;15.02;nan;102254.47;5048646;28;19996;-80
2023/06/04 01:35:07;;;;;;;;;;;;;;;14.98;nan;102251.44;5043257;28;20016;-80
2023/06/04 01:37:32;;;;;;;;;;;;;;;14.92;nan;102257.00;5047823;28;20510;-80
2023/06/04 01:39:57;;;;;;;;;;;;;;;14.88;nan;102253.13;5046283;28;19956;-80
2023/06/04 01:42:23;;;;;;;;;;;;;;;14.82;nan;102252.22;5042931;28;19943;-80
2023/06/04 01:44:48;;;;;;;;;;;;;;;14.75;nan;102254.25;5046486;28;19921;-81
2023/06/04 01:47:14;;;;;;;;;;;;;;;14.70;nan;102256.81;5043887;28;19948;-80
2023/06/04 01:49:40;;;;;;;;;;;;;;;14.67;nan;102258.13;5047185;28;20486;-80
2023/06/04 01:52:06;;;;;;;;;;;;;;;14.66;nan;102255.66;5046050;28;19924;-80
2023/06/04 01:54:33;;;;;;;;;;;;;;;14.62;nan;102255.31;5048804;28;20126;-80
2023/06/04 01:56:59;;;;;;;;;;;;;;;14.60;nan;102245.84;5058148;28;20021;-80
2023/06/04 01:59:25;;;;;;;;;;;;;;;14.55;nan;102253.81;5044642;28;19975;-80
2023/06/04 02:01:50;;;;;;;;;;;;;;;14.52;nan;102253.22;5045540;28;19921;-80
2023/06/04 02:04:15;;;;;;;;;;;;;;;14.53;nan;102248.63;5064311;28;19921;-80
2023/06/04 02:06:41;;;;;;;;;;;;;;;14.47;nan;102241.50;5048486;28;19939;-80
2023/06/04 02:09:06;;;;;;;;;;;;;;;14.42;nan;102246.78;5045196;28;19928;-80
2023/06/04 02:11:32;;;;;;;;;;;;;;;14.39;nan;102239.16;5048332;28;20362;-80
2023/06/04 02:13:57;;;;;;;;;;;;;;;14.35;nan;102241.50;5048043;28;20418;-80
2023/06/04 02:16:22;;;;;;;;;;;;;;;14.32;nan;102254.63;5044389;28;19934;-80
2023/06/04 02:18:48;;;;;;;;;;;;;;;14.26;nan;102260.97;5046497;28;19932;-80
2023/06/04 02:21:13;;;;;;;;;;;;;;;14.25;nan;102248.56;5047655;28;19924;-80
2023/06/04 02:23:38;;;;;;;;;;;;;;;14.24;nan;102255.81;5047316;28;19931;-80
2023/06/04 02:26:05;;;;;;;;;;;;;;;14.21;nan;102250.91;5045970;28;19921;-80
2023/06/04 02:28:30;;;;;;;;;;;;;;;14.20;nan;102247.38;5047864;28;20308;-80
2023/06/04 02:30:55;;;;;;;;;;;;;;;14.19;nan;102250.31;5043197;28;19924;-80
2023/06/04 02:33:21;;;;;;;;;;;;;;;14.16;nan;102243.50;5046326;28;19920;-80
2023/06/04 02:35:46;;;;;;;;;;;;;;;14.13;nan;102246.66;5046199;28;19921;-80
2023/06/04 02:38:12;;;;;;;;;;;;;;;14.12;nan;102250.44;5045380;28;19921;-80
2023/06/04 02:40:38;;;;;;;;;;;;;;;14.10;nan;102249.03;5045330;28;19917;-80
2023/06/04 02:43:03;;;;;;;;;;;;;;;14.05;nan;102243.53;5048293;28;20833;-80
2023/06/04 02:45:28;;;;;;;;;;;;;;;13.99;nan;102250.66;5047932;28;19920;-80
2023/06/04 02:47:54;;;;;;;;;;;;;;;13.94;nan;102245.16;5048862;28;19961;-80
2023/06/04 02:50:19;;;;;;;;;;;;;;;13.89;nan;102245.03;5044834;28;19917;-80
2023/06/04 02:52:45;;;;;;;;;;;;;;;13.88;nan;102246.09;5046508;28;19979;-80
2023/06/04 02:55:12;;;;;;;;;;;;;;;13.85;nan;102254.66;5048064;28;19952;-80
2023/06/04 02:57:40;;;;;;;;;;;;;;;13.84;nan;102253.00;5046339;28;19928;-80
2023/06/04 03:00:12;;;;;;;;;;;;;;;13.85;nan;102252.78;5042918;28;19931;-80
2023/06/04 03:02:41;;;;;;;;;;;;;;;13.87;nan;102252.53;5046534;28;19921;-80
2023/06/04 03:05:07;;;;;;;;;;;;;;;13.83;nan;102254.06;5045497;28;19931;-80
2023/06/04 03:07:33;;;;;;;;;;;;;;;13.80;nan;102254.50;5047109;28;19921;-80
2023/06/04 03:09:58;;;;;;;;;;;;;;;13.78;nan;102253.94;5047550;28;19970;-80
2023/06/04 03:12:23;;;;;;;;;;;;;;;13.74;nan;102252.75;5048283;28;19927;-80
2023/06/04 03:14:49;;;;;;;;;;;;;;;13.67;nan;102260.94;5049461;28;19921;-80
2023/06/04 03:17:15;;;;;;;;;;;;;;;13.66;nan;102258.50;5045725;28;19921;-80
2023/06/04 03:19:41;;;;;;;;;;;;;;;13.62;nan;102258.13;5044667;28;19920;-80
2023/06/04 03:22:07;;;;;;;;;;;;;;;13.53;nan;102256.81;5042765;28;19920;-80
2023/06/04 03:24:38;;;;;;;;;;;;;;;13.48;nan;102264.78;5045104;28;19928;-79
2023/06/04 03:27:04;;;;;;;;;;;;;;;13.45;nan;102260.66;5046281;28;20000;-79
2023/06/04 03:29:30;;;;;;;;;;;;;;;13.47;nan;102257.75;5047056;28;19924;-80
2023/06/04 03:31:56;;;;;;;;;;;;;;;13.48;nan;102265.59;5045525;28;20019;-80
2023/06/04 03:34:24;;;;;;;;;;;;;;;13.48;nan;102262.09;5047006;28;20011;-80
2023/06/04 03:36:50;;;;;;;;;;;;;;;13.47;nan;102266.66;5042529;28;20023;-80
2023/06/04 03:39:15;;;;;;;;;;;;;;;13.52;nan;102264.06;5043338;28;20015;-80
2023/06/04 03:41:41;;;;;;;;;;;;;;;13.63;nan;102261.63;5044656;28;19947;-80
2023/06/04 03:44:06;;;;;;;;;;;;;;;13.72;nan;102261.06;5042727;28;19970;-80
2023/06/04 03:46:33;;;;;;;;;;;;;;;13.83;nan;102262.16;5045024;28;19931;-80
2023/06/04 03:48:58;;;;;;;;;;;;;;;13.93;nan;102258.88;5044258;28;19921;-80
2023/06/04 03:51:25;;;;;;;;;;;;;;;14.01;nan;102259.34;5044736;28;19931;-81
2023/06/04 03:53:50;;;;;;;;;;;;;;;14.07;nan;102253.00;5043835;28;19925;-80
2023/06/04 03:56:15;;;;;;;;;;;;;;;14.10;nan;102254.41;5045255;28;19952;-80
2023/06/04 03:58:40;;;;;;;;;;;;;;;14.16;nan;102254.28;5043223;28;19967;-80
2023/06/04 04:01:06;;;;;;;;;;;;;;;14.25;nan;102259.34;5048306;28;19921;-80
2023/06/04 04:03:34;;;;;;;;;;;;;;;14.31;nan;102261.91;5043373;28;19924;-80
2023/06/04 04:06:00;;;;;;;;;;;;;;;14.34;nan;102260.59;5042750;28;19921;-81
2023/06/04 04:08:26;;;;;;;;;;;;;;;14.37;nan;102252.88;5039456;28;20416;-80
2023/06/04 04:10:51;;;;;;;;;;;;;;;14.40;nan;102251.59;5042040;28;19921;-80
2023/06/04 04:13:17;;;;;;;;;;;;;;;14.45;nan;102260.63;5043001;28;19920;-80
2023/06/04 04:15:42;;;;;;;;;;;;;;;14.52;nan;102255.91;5043269;28;19933;-81
2023/06/04 04:18:10;;;;;;;;;;;;;;;14.62;nan;102254.50;5046024;28;19997;-81
2023/06/04 04:20:35;;;;;;;;;;;;;;;14.73;nan;102259.88;5045713;28;19939;-81
2023/06/04 04:23:01;;;;;;;;;;;;;;;14.82;nan;102261.13;5046939;28;20066;-81
2023/06/04 04:25:27;;;;;;;;;;;;;;;14.93;nan;102264.03;5044340;28;20272;-81
2023/06/04 04:27:52;;;;;;;;;;;;;;;15.07;nan;102262.66;5043128;28;19962;-81
2023/06/04 04:30:18;;;;;;;;;;;;;;;15.18;nan;102263.69;5047541;28;20376;-81
2023/06/04 04:32:48;;;;;;;;;;;;;;;15.28;nan;102262.00;5043217;28;19924;-81
2023/06/04 04:35:14;;;;;;;;;;;;;;;15.38;nan;102256.78;5044069;28;19925;-80
2023/06/04 04:37:40;;;;;;;;;;;;;;;15.50;nan;102261.31;5046409;28;19925;-81
2023/06/04 04:40:09;;;;;;;;;;;;;;;15.60;nan;102256.91;5042253;28;19928;-80
2023/06/04 04:42:35;;;;;;;;;;;;;;;15.70;nan;102250.84;5059469;28;19920;-80
2023/06/04 04:45:00;;;;;;;;;;;;;;;15.78;nan;102260.44;5042993;28;20533;-81
2023/06/04 04:47:26;;;;;;;;;;;;;;;15.88;nan;102257.91;5043674;28;19973;-81
2023/06/04 04:49:51;;;;;;;;;;;;;;;16.01;nan;102263.78;5043129;28;19921;-81
2023/06/04 04:52:16;;;;;;;;;;;;;;;16.14;nan;102259.91;5045885;28;19920;-81
2023/06/04 04:54:42;;;;;;;;;;;;;;;16.29;nan;102260.13;5061165;28;20342;-81
2023/06/04 04:57:07;;;;;;;;;;;;;;;16.41;nan;102261.91;5045069;28;20023;-81
2023/06/04 04:59:32;;;;;;;;;;;;;;;16.52;nan;102264.50;5042584;28;20007;-81
2023/06/04 05:01:58;;;;;;;;;;;;;;;16.66;nan;102261.41;5045383;28;20130;-82
2023/06/04 05:04:23;;;;;;;;;;;;;;;16.80;nan;102270.81;5040172;28;19927;-81
2023/06/04 05:06:48;;;;;;;;;;;;;;;16.94;nan;102268.56;5043331;28;19925;-81
2023/06/04 05:09:13;;;;;;;;;;;;;;;17.05;nan;102270.28;5040283;28;19921;-81
2023/06/04 05:11:39;;;;;;;;;;;;;;;17.16;nan;102270.16;5042124;28;19932;-81
2023/06/04 05:14:05;;;;;;;;;;;;;;;17.29;nan;102263.50;5042451;28;19921;-81
2023/06/04 05:16:30;;;;;;;;;;;;;;;17.41;nan;102275.00;5041306;28;20427;-82
2023/06/04 05:18:56;;;;;;;;;;;;;;;17.52;nan;102271.31;5043680;28;19920;-81
2023/06/04 05:21:22;;;;;;;;;;;;;;;17.65;nan;102275.50;5043394;28;19917;-81
2023/06/04 05:23:48;;;;;;;;;;;;;;;17.80;nan;102275.66;5043132;28;19962;-81
2023/06/04 05:26:13;;;;;;;;;;;;;;;17.96;nan;102273.88;5040526;28;19927;-81
2023/06/04 05:28:43;;;;;;;;;;;;;;;18.12;nan;102272.06;5043552;28;19925;-81
2023/06/04 05:31:08;;;;;;;;;;;;;;;18.26;nan;102273.25;5040898;28;19964;-81
2023/06/04 05:33:34;;;;;;;;;;;;;;;18.40;nan;102273.59;5040094;28;20447;-82
2023/06/04 05:35:59;;;;;;;;;;;;;;;18.52;nan;102274.22;5042946;28;19929;-82
2023/06/04 05:38:30;;;;;;;;;;;;;;;18.66;nan;102271.84;5041455;28;19971;-81
2023/06/04 05:40:56;;;;;;;;;;;;;;;18.81;nan;102281.94;5041121;28;19925;-81
2023/06/04 05:43:22;;;;;;;;;;;;;;;18.93;nan;102268.97;5042833;28;19927;-82
2023/06/04 05:45:47;;;;;;;;;;;;;;;19.06;nan;102268.47;5042757;28;19921;-82
2023/06/04 05:48:13;;;;;;;;;;;;;;;19.22;nan;102266.59;5043741;28;19927;-82
2023/06/04 05:50:38;;;;;;;;;;;;;;;19.34;nan;102267.13;5039686;28;20594;-82
2023/06/04 05:53:03;;;;;;;;;;;;;;;19.49;nan;102269.06;5043166;28;19921;-82
2023/06/04 05:55:29;;;;;;;;;;;;;;;19.63;nan;102272.09;5040270;28;19921;-82
2023/06/04 05:57:54;;;;;;;;;;;;;;;19.74;nan;102277.25;5039735;28;20019;-82
2023/06/04 06:00:21;;;;;;;;;;;;;;;19.86;nan;102275.06;5039566;28;19932;-81
2023/06/04 06:02:48;;;;;;;;;;;;;;;20.03;nan;102282.94;5041993;28;19981;-81
2023/06/04 06:05:14;;;;;;;;;;;;;;;20.23;nan;102280.19;5044278;28;20503;-81
2023/06/04 06:07:39;;;;;;;;;;;;;;;20.41;nan;102276.06;5046219;28;19931;-82
2023/06/04 06:10:05;;;;;;;;;;;;;;;20.57;nan;102285.00;5042700;28;19921;-81
2023/06/04 06:12:30;;;;;;;;;;;;;;;20.67;nan;102279.53;5040135;28;19990;-81
2023/06/04 06:14:56;;;;;;;;;;;;;;;20.77;nan;102284.09;5045685;28;20542;-82
2023/06/04 06:17:21;;;;;;;;;;;;;;;20.91;nan;102284.31;5044352;28;19936;-82
2023/06/04 06:19:46;;;;;;;;;;;;;;;21.05;nan;102277.97;5044897;28;19979;-81
2023/06/04 06:22:12;;;;;;;;;;;;;;;21.18;nan;102284.69;5045044;28;19932;-82
2023/06/04 06:24:39;;;;;;;;;;;;;;;21.30;nan;102284.38;5044493;28;19921;-81
2023/06/04 06:27:04;;;;;;;;;;;;;;;21.48;nan;102283.72;5046107;28;20007;-82
2023/06/04 06:29:30;;;;;;;;;;;;;;;21.67;nan;102292.84;5047597;28;21515;-81
2023/06/04 06:31:55;;;;;;;;;;;;;;;21.82;nan;102288.34;5045923;28;20308;-81
2023/06/04 06:34:21;;;;;;;;;;;;;;;21.95;nan;102293.16;5044524;28;19925;-81
2023/06/04 06:36:46;;;;;;;;;;;;;;;22.08;nan;102295.22;5047010;28;19995;-82
2023/06/04 06:39:12;;;;;;;;;;;;;;;22.22;nan;102293.44;5044895;28;20670;-82
2023/06/04 06:41:38;;;;;;;;;;;;;;;22.38;nan;102293.28;5041061;28;19917;-82
2023/06/04 06:44:04;;;;;;;;;;;;;;;22.54;nan;102301.00;5048188;28;19925;-82
2023/06/04 06:46:29;;;;;;;;;;;;;;;22.73;nan;102295.59;5040481;28;19925;-81
2023/06/04 06:48:54;;;;;;;;;;;;;;;22.89;nan;102298.97;5039331;28;20307;-81
2023/06/04 06:51:20;;;;;;;;;;;;;;;23.07;nan;102300.09;5046736;28;19942;-82
2023/06/04 06:53:45;;;;;;;;;;;;;;;23.27;nan;102308.00;5042352;28;19970;-82
2023/06/04 06:56:11;;;;;;;;;;;;;;;23.42;nan;102301.50;5044875;28;19932;-82
2023/06/04 06:58:36;;;;;;;;;;;;;;;23.56;nan;102302.38;5044475;28;19928;-82
2023/06/04 07:01:01;;;;;;;;;;;;;;;23.73;nan;102305.41;5042861;28;20334;-82
2023/06/04 07:03:27;;;;;;;;;;;;;;;23.86;nan;102303.00;5046052;28;20479;-81
2023/06/04 07:05:53;;;;;;;;;;;;;;;24.01;nan;102294.50;5046376;28;19924;-81
2023/06/04 07:08:18;;;;;;;;;;;;;;;24.18;nan;102305.69;5043088;28;20165;-81
2023/06/04 07:10:44;;;;;;;;;;;;;;;24.36;nan;102302.09;5041052;28;19917;-82
2023/06/04 07:13:09;;;;;;;;;;;;;;;24.53;nan;102306.16;5045274;28;19998;-82
2023/06/04 07:15:35;;;;;;;;;;;;;;;24.66;nan;102305.34;5044836;28;20400;-82
2023/06/04 07:18:00;;;;;;;;;;;;;;;24.79;nan;102299.06;5043276;28;19925;-82
2023/06/04 07:20:25;;;;;;;;;;;;;;;24.86;nan;102301.38;5045435;28;19963;-81
2023/06/04 07:22:50;;;;;;;;;;;;;;;25.00;nan;102296.69;5040758;28;19927;-81
2023/06/04 07:25:16;;;;;;;;;;;;;;;25.14;nan;102304.91;5042031;28;20405;-81
2023/06/04 07:27:41;;;;;;;;;;;;;;;25.18;nan;102305.91;5047073;28;19924;-82
2023/06/04 07:30:07;;;;;;;;;;;;;;;25.23;nan;102303.03;5045801;28;20591;-82
2023/06/04 07:32:33;;;;;;;;;;;;;;;25.38;nan;102310.09;5046633;28;19916;-82
2023/06/04 07:34:58;;;;;;;;;;;;;;;25.57;nan;102303.31;5043053;28;19928;-81
2023/06/04 07:37:23;;;;;;;;;;;;;;;25.72;nan;102307.66;5043561;28;19925;-82
2023/06/04 07:39:49;;;;;;;;;;;;;;;25.85;nan;102305.91;5043472;28;19920;-81
2023/06/04 07:42:14;;;;;;;;;;;;;;;25.99;nan;102303.91;5044176;28;19928;-82
2023/06/04 07:44:40;;;;;;;;;;;;;;;26.18;nan;102309.19;5044435;28;19925;-81
2023/06/04 07:47:05;;;;;;;;;;;;;;;26.38;nan;102310.56;5040749;28;20211;-82
2023/06/04 07:49:30;;;;;;;;;;;;;;;26.56;nan;102312.25;5041478;28;19923;-82
2023/06/04 07:51:56;;;;;;;;;;;;;;;26.72;nan;102305.19;5041758;28;19951;-82
2023/06/04 07:54:21;;;;;;;;;;;;;;;26.84;nan;102310.06;5043341;28;19978;-82
2023/06/04 07:56:47;;;;;;;;;;;;;;;26.92;nan;102303.78;5045823;28;19979;-82
2023/06/04 07:59:12;;;;;;;;;;;;;;;27.08;nan;102302.19;5041063;28;19970;-82
2023/06/04 08:01:37;;;;;;;;;;;;;;;27.23;nan;102300.91;5039682;28;20006;-82
2023/06/04 08:04:02;;;;;;;;;;;;;;;27.36;nan;102293.63;5041738;28;19920;-82
2023/06/04 08:06:28;;;;;;;;;;;;;;;27.48;nan;102298.50;5041237;28;19921;-81
2023/06/04 08:08:53;;;;;;;;;;;;;;;27.50;nan;102298.97;5040600;28;20346;-82
2023/06/04 08:11:19;;;;;;;;;;;;;;;27.54;nan;102294.44;5037906;28;19986;-81
2023/06/04 08:13:44;;;;;;;;;;;;;;;27.51;nan;102293.16;5045291;28;20356;-82
2023/06/04 08:16:10;;;;;;;;;;;;;;;27.58;nan;102293.44;5041913;28;20544;-82
2023/06/04 08:18:39;;;;;;;;;;;;;;;27.75;nan;102292.63;5042042;28;20443;-82
2023/06/04 08:21:05;;;;;;;;;;;;;;;27.90;nan;102294.06;5043616;28;19925;-82
2023/06/04 08:23:31;;;;;;;;;;;;;;;28.05;nan;102295.47;5041223;28;19923;-82
2023/06/04 08:25:56;;;;;;;;;;;;;;;28.17;nan;102288.13;5042757;28;19916;-82
2023/06/04 08:28:21;;;;;;;;;;;;;;;28.26;nan;102290.88;5039176;28;20029;-81
2023/06/04 08:30:47;;;;;;;;;;;;;;;28.35;nan;102296.34;5044458;28;20358;-83
2023/06/04 08:33:12;;;;;;;;;;;;;;;28.49;nan;102288.66;5039057;28;19955;-82
2023/06/04 08:35:37;;;;;;;;;;;;;;;28.65;nan;102292.47;5036542;28;19925;-82
2023/06/04 08:38:03;;;;;;;;;;;;;;;28.73;nan;102291.59;5039969;28;20373;-82
2023/06/04 08:40:28;;;;;;;;;;;;;;;28.66;nan;102287.75;5037693;28;19960;-81
2023/06/04 08:42:58;;;;;;;;;;;;;;;28.63;nan;102288.41;5036821;28;19920;-82
2023/06/04 08:45:23;;;;;;;;;;;;;;;28.74;nan;102289.66;5040360;28;19925;-82
2023/06/04 08:47:49;;;;;;;;;;;;;;;28.89;nan;102281.59;5039268;28;19932;-81
2023/06/04 08:50:19;;;;;;;;;;;;;;;28.99;nan;102296.97;5038148;28;20373;-82
2023/06/04 08:52:45;;;;;;;;;;;;;;;29.14;nan;102292.78;5039511;28;20003;-82
2023/06/04 08:55:11;;;;;;;;;;;;;;;29.35;nan;102288.06;5040883;28;20015;-82
2023/06/04 08:57:38;;;;;;;;;;;;;;;29.55;nan;102288.38;5045077;28;20589;-83
2023/06/04 09:00:05;;;;;;;;;;;;;;;29.65;nan;102291.53;5041694;28;19925;-83
2023/06/04 09:02:31;;;;;;;;;;;;;;;29.68;nan;102288.09;5045543;28;19927;-83
2023/06/04 09:04:56;;;;;;;;;;;;;;;29.69;nan;102294.41;5043404;28;19921;-83
2023/06/04 09:07:23;;;;;;;;;;;;;;;29.64;nan;102287.16;5045457;28;19964;-83
2023/06/04 09:09:48;;;;;;;;;;;;;;;29.60;nan;102290.94;5040937;28;19956;-82
2023/06/04 09:12:18;;;;;;;;;;;;;;;29.69;nan;102294.41;5041571;28;19963;-84
2023/06/04 09:14:44;;;;;;;;;;;;;;;29.82;nan;102287.78;5042822;28;19920;-82
2023/06/04 09:17:09;;;;;;;;;;;;;;;29.91;nan;102287.69;5042670;28;19927;-83
2023/06/04 09:19:34;;;;;;;;;;;;;;;29.89;nan;102284.44;5057840;28;19924;-82
2023/06/04 09:22:02;;;;;;;;;;;;;;;29.97;nan;102286.28;5043502;28;19921;-82
2023/06/04 09:24:41;;;;;;;;;;;;;;;30.14;nan;102275.06;5042518;28;19921;-82
2023/06/04 09:27:09;;;;;;;;;;;;;;;30.21;nan;102283.59;5044149;28;19925;-82
2023/06/04 09:29:36;;;;;;;;;;;;;;;30.27;nan;102279.44;5041771;28;19923;-82
2023/06/04 09:32:01;;;;;;;;;;;;;;;30.33;nan;102277.25;5040396;28;20381;-83
2023/06/04 09:34:30;;;;;;;;;;;;;;;30.30;nan;102278.75;5045502;28;19917;-83
2023/06/04 09:36:56;;;;;;;;;;;;;;;30.27;nan;102282.22;5043258;28;19932;-84
2023/06/04 09:39:23;;;;;;;;;;;;;;;30.24;nan;102282.91;5042181;28;19921;-85
2023/06/04 09:42:01;;;;;;;;;;;;;;;30.21;nan;102289.13;5043150;28;19920;-83
2023/06/04 09:44:27;;;;;;;;;;;;;;;30.30;nan;102286.22;5043416;28;20015;-83
2023/06/04 09:46:58;;;;;;;;;;;;;;;30.46;nan;102280.81;5042955;28;20036;-83
2023/06/04 09:49:24;;;;;;;;;;;;;;;30.55;nan;102284.28;5046429;28;19920;-83
2023/06/04 09:51:49;;;;;;;;;;;;;;;30.65;nan;102281.06;5044274;28;20442;-82
2023/06/04 09:54:15;;;;;;;;;;;;;;;30.65;nan;102283.81;5041844;28;19920;-83
2023/06/04 09:56:41;;;;;;;;;;;;;;;30.70;nan;102286.34;5048441;28;19924;-83
2023/06/04 09:59:08;;;;;;;;;;;;;;;30.78;nan;102288.19;5045335;28;19974;-81
2023/06/04 10:01:35;;;;;;;;;;;;;;;30.85;nan;102282.88;5044910;28;20330;-82
2023/06/04 10:04:03;;;;;;;;;;;;;;;30.84;nan;102280.44;5050913;28;19917;-82
2023/06/04 10:06:32;;;;;;;;;;;;;;;30.89;nan;102283.78;5043592;28;19993;-82
2023/06/04 10:09:03;;;;;;;;;;;;;;;30.89;nan;102283.78;5043038;28;19961;-84
2023/06/04 10:11:34;;;;;;;;;;;;;;;30.82;nan;102278.03;5043911;28;19925;-81
2023/06/04 10:14:10;;;;;;;;;;;;;;;30.76;nan;102278.63;5045777;28;21566;-81
2023/06/04 10:16:37;;;;;;;;;;;;;;;30.79;nan;102278.72;5045469;28;19921;-82
2023/06/04 10:19:04;;;;;;;;;;;;;;;30.73;nan;102280.13;5043347;28;19920;-81
2023/06/04 10:21:34;;;;;;;;;;;;;;;30.71;nan;102278.88;5045524;28;19916;-81
2023/06/04 10:24:00;;;;;;;;;;;;;;;30.89;nan;102289.34;5046284;28;20007;-82
2023/06/04 10:26:25;;;;;;;;;;;;;;;30.75;nan;102283.38;5048948;28;19924;-82
2023/06/04 10:28:51;;;;;;;;;;;;;;;30.78;nan;102282.66;5042649;28;19925;-82
2023/06/04 10:31:17;;;;;;;;;;;;;;;31.01;nan;102279.38;5045822;28;19931;-82
2023/06/04 10:33:42;;;;;;;;;;;;;;;31.11;nan;102287.19;5043223;28;19920;-82
2023/06/04 10:36:18;;;;;;;;;;;;;;;31.08;nan;102285.13;5042013;28;19920;-83
2023/06/04 10:38:47;;;;;;;;;;;;;;;31.18;nan;102290.19;5038816;28;19926;-83
2023/06/04 10:41:17;;;;;;;;;;;;;;;31.40;nan;102281.31;5040848;28;20360;-83
2023/06/04 10:43:46;;;;;;;;;;;;;;;31.40;nan;102278.53;5041528;28;19920;-83
2023/06/04 10:46:13;;;;;;;;;;;;;;;31.37;nan;102272.91;5039834;28;19951;-84
2023/06/04 10:48:45;;;;;;;;;;;;;;;31.41;nan;102282.91;5039359;28;20003;-83
2023/06/04 10:51:10;;;;;;;;;;;;;;;31.52;nan;102281.25;5044601;28;19921;-83
2023/06/04 10:53:38;;;;;;;;;;;;;;;31.60;nan;102273.97;5043863;28;19931;-83
2023/06/04 10:56:03;;;;;;;;;;;;;;;31.65;nan;102270.13;5044366;28;20023;-83
2023/06/04 10:58:32;;;;;;;;;;;;;;;31.83;nan;102282.50;5041834;28;20451;-83
2023/06/04 11:00:57;;;;;;;;;;;;;;;31.86;nan;102276.25;5048566;28;19948;-83
2023/06/04 11:03:23;;;;;;;;;;;;;;;31.82;nan;102270.63;5045136;28;19959;-83
2023/06/04 11:05:50;;;;;;;;;;;;;;;31.90;nan;102260.50;5044456;28;20038;-82
2023/06/04 11:08:26;;;;;;;;;;;;;;;32.07;nan;102264.88;5041864;28;19921;-83
2023/06/04 11:10:52;;;;;;;;;;;;;;;32.21;nan;102256.91;5038959;28;19931;-83
2023/06/04 11:13:22;;;;;;;;;;;;;;;32.26;nan;102261.38;5044393;28;19917;-83
2023/06/04 11:15:48;;;;;;;;;;;;;;;32.19;nan;102261.22;5039539;28;19994;-85
2023/06/04 11:18:15;;;;;;;;;;;;;;;32.08;nan;102258.97;5042774;28;20473;-84
2023/06/04 11:20:44;;;;;;;;;;;;;;;32.16;nan;102255.22;5034938;28;20046;-84
2023/06/04 11:23:11;;;;;;;;;;;;;;;32.21;nan;102261.66;5045035;28;19921;-83
2023/06/04 11:25:36;;;;;;;;;;;;;;;31.97;nan;102259.91;5057838;28;19925;-84
2023/06/04 11:28:02;;;;;;;;;;;;;;;31.86;nan;102267.94;5044055;28;20388;-84
2023/06/04 11:30:28;;;;;;;;;;;;;;;31.99;nan;102260.34;5038899;28;20347;-84
2023/06/04 11:33:00;;;;;;;;;;;;;;;32.16;nan;102260.78;5040950;28;19942;-85
2023/06/04 11:35:25;;;;;;;;;;;;;;;32.28;nan;102257.09;5043466;28;19920;-85
2023/06/04 11:37:55;;;;;;;;;;;;;;;32.26;nan;102258.59;5042010;28;19925;-83
2023/06/04 11:40:20;;;;;;;;;;;;;;;32.14;nan;102257.56;5035069;28;19975;-85
2023/06/04 11:42:46;;;;;;;;;;;;;;;32.01;nan;102256.03;5037678;28;19929;-85
2023/06/04 11:45:13;;;;;;;;;;;;;;;32.03;nan;102253.72;5041798;28;19921;-84
2023/06/04 11:47:38;;;;;;;;;;;;;;;32.27;nan;102254.69;5041575;28;19932;-85
2023/06/04 11:50:04;;;;;;;;;;;;;;;32.42;nan;102253.88;5039379;28;19952;-85
2023/06/04 11:52:30;;;;;;;;;;;;;;;32.67;nan;102243.31;5036295;28;19920;-86
2023/06/04 11:54:55;;;;;;;;;;;;;;;32.93;nan;102245.50;5029486;28;19920;-85
2023/06/04 11:57:21;;;;;;;;;;;;;;;33.20;nan;102244.44;5052851;28;19924;-84
2023/06/04 11:59:47;;;;;;;;;;;;;;;33.49;nan;102245.03;5033358;28;20449;-85
2023/06/04 12:02:12;;;;;;;;;;;;;;;33.76;nan;102243.94;5039848;28;20023;-85
2023/06/04 12:04:38;;;;;;;;;;;;;;;33.88;nan;102243.75;5035663;28;19928;-85
2023/06/04 12:07:06;;;;;;;;;;;;;;;33.93;nan;102246.25;5038268;28;19924;-85
2023/06/04 12:09:34;;;;;;;;;;;;;;;33.89;nan;102245.34;5035962;28;19956;-85
2023/06/04 12:12:03;;;;;;;;;;;;;;;33.96;nan;102235.53;5050902;28;19956;-85
2023/06/04 12:14:29;;;;;;;;;;;;;;;33.96;nan;102241.91;5031609;28;20008;-85
2023/06/04 12:17:01;;;;;;;;;;;;;;;34.05;nan;102224.94;5031284;28;19929;-84
2023/06/04 12:19:27;;;;;;;;;;;;;;;34.19;nan;102231.53;5032945;28;20449;-85
2023/06/04 12:22:03;;;;;;;;;;;;;;;34.40;nan;102236.63;5037513;28;19928;-85
2023/06/04 12:24:30;;;;;;;;;;;;;;;34.53;nan;102240.00;5038091;28;20400;-85
2023/06/04 12:27:02;;;;;;;;;;;;;;;34.52;nan;102236.41;5032582;28;19935;-85
2023/06/04 12:29:28;;;;;;;;;;;;;;;34.49;nan;102233.59;5036098;28;20019;-85
2023/06/04 12:32:01;;;;;;;;;;;;;;;34.39;nan;102226.69;5036095;28;20471;-85
2023/06/04 12:34:26;;;;;;;;;;;;;;;34.40;nan;102228.28;5036578;28;19925;-86
2023/06/04 12:36:52;;;;;;;;;;;;;;;34.44;nan;102233.91;5036938;28;19929;-84
2023/06/04 12:39:17;;;;;;;;;;;;;;;34.42;nan;102225.94;5036709;28;19924;-85
2023/06/04 12:41:46;;;;;;;;;;;;;;;34.43;nan;102226.72;5036792;28;19921;-85
2023/06/04 12:44:12;;;;;;;;;;;;;;;34.37;nan;102225.47;5038607;28;19921;-84
2023/06/04 12:46:37;;;;;;;;;;;;;;;34.31;nan;102224.16;5031954;28;19921;-85
2023/06/04 12:49:03;;;;;;;;;;;;;;;34.16;nan;102217.59;5036931;28;19924;-85
2023/06/04 12:51:28;;;;;;;;;;;;;;;34.08;nan;102215.84;5036192;28;19920;-85
2023/06/04 12:53:53;;;;;;;;;;;;;;;34.11;nan;102220.66;5036799;28;19931;-84